sensor_id;sensor_type;location;lat;lon;timestamp;pressure;altitude;pressure_sealevel;temperature;humidity
3150;BME280;32503;47.748;8.960;2023-04-24T00:01:08;96045.06;;;14.20;63.79
3150;BME280;32503;47.748;8.960;2023-04-24T00:03:36;96057.09;;;14.26;63.64
3150;BME280;32503;47.748;8.960;2023-04-24T00:06:05;96057.84;;;14.27;63.72
3150;BME280;32503;47.748;8.960;2023-04-24T00:08:32;96048.53;;;14.28;63.90
3150;BME280;32503;47.748;8.960;2023-04-24T00:11:00;96051.25;;;14.28;63.78
3150;BME280;32503;47.748;8.960;2023-04-24T00:13:28;96036.19;;;14.16;63.61
3150;BME280;32503;47.748;8.960;2023-04-24T00:15:55;96032.22;;;14.28;63.58
3150;BME280;32503;47.748;8.960;2023-04-24T00:18:22;96035.72;;;14.28;63.54
3150;BME280;32503;47.748;8.960;2023-04-24T00:20:49;96035.72;;;14.28;63.75
3150;BME280;32503;47.748;8.960;2023-04-24T00:23:16;96036.47;;;14.32;63.13
3150;BME280;32503;47.748;8.960;2023-04-24T00:25:43;96039.56;;;14.31;63.56
3150;BME280;32503;47.748;8.960;2023-04-24T00:28:12;96027.94;;;14.30;63.55
3150;BME280;32503;47.748;8.960;2023-04-24T00:30:39;96032.59;;;14.33;63.54
3150;BME280;32503;47.748;8.960;2023-04-24T00:33:06;96033.75;;;14.29;63.81
3150;BME280;32503;47.748;8.960;2023-04-24T00:35:33;96032.63;;;14.26;63.57
3150;BME280;32503;47.748;8.960;2023-04-24T00:38:00;96030.34;;;14.21;64.04
3150;BME280;32503;47.748;8.960;2023-04-24T00:40:28;96025.69;;;14.14;64.17
3150;BME280;32503;47.748;8.960;2023-04-24T00:42:55;96030.75;;;14.16;64.14
3150;BME280;32503;47.748;8.960;2023-04-24T00:45:23;96027.25;;;14.19;64.24
3150;BME280;32503;47.748;8.960;2023-04-24T00:47:52;96027.97;;;14.23;64.20
3150;BME280;32503;47.748;8.960;2023-04-24T00:50:20;96017.09;;;14.23;64.12
3150;BME280;32503;47.748;8.960;2023-04-24T00:52:48;96015.59;;;14.15;63.73
3150;BME280;32503;47.748;8.960;2023-04-24T00:55:15;96016.00;;;14.13;63.63
3150;BME280;32503;47.748;8.960;2023-04-24T00:57:42;96023.41;;;14.09;63.47
3150;BME280;32503;47.748;8.960;2023-04-24T01:00:10;96025.84;;;13.89;63.69
3150;BME280;32503;47.748;8.960;2023-04-24T01:02:40;96020.41;;;13.89;63.77
3150;BME280;32503;47.748;8.960;2023-04-24T01:05:10;96019.28;;;13.83;64.02
3150;BME280;32503;47.748;8.960;2023-04-24T01:07:39;96025.06;;;13.85;64.15
3150;BME280;32503;47.748;8.960;2023-04-24T01:10:10;96020.09;;;13.73;64.87
3150;BME280;32503;47.748;8.960;2023-04-24T01:12:37;96018.94;;;13.74;64.96
3150;BME280;32503;47.748;8.960;2023-04-24T01:15:06;96018.19;;;13.66;65.13
3150;BME280;32503;47.748;8.960;2023-04-24T01:17:33;96025.19;;;13.63;65.17
3150;BME280;32503;47.748;8.960;2023-04-24T01:20:02;96020.53;;;13.60;64.76
3150;BME280;32503;47.748;8.960;2023-04-24T01:22:33;96006.19;;;13.56;64.90
3150;BME280;32503;47.748;8.960;2023-04-24T01:25:00;96037.59;;;13.68;65.11
3150;BME280;32503;47.748;8.960;2023-04-24T01:27:28;96029.81;;;13.70;65.28
3150;BME280;32503;47.748;8.960;2023-04-24T01:29:55;96026.72;;;13.72;65.25
3150;BME280;32503;47.748;8.960;2023-04-24T01:32:22;96025.56;;;13.62;64.83
3150;BME280;32503;47.748;8.960;2023-04-24T01:34:49;96024.03;;;13.64;64.90
3150;BME280;32503;47.748;8.960;2023-04-24T01:37:17;96021.28;;;13.68;64.76
3150;BME280;32503;47.748;8.960;2023-04-24T01:39:45;96034.50;;;13.66;64.90
3150;BME280;32503;47.748;8.960;2023-04-24T01:42:13;96030.59;;;13.67;64.88
3150;BME280;32503;47.748;8.960;2023-04-24T01:44:40;96022.81;;;13.69;64.98
3150;BME280;32503;47.748;8.960;2023-04-24T01:47:08;96031.78;;;13.62;64.46
3150;BME280;32503;47.748;8.960;2023-04-24T01:49:36;96025.56;;;13.65;64.29
3150;BME280;32503;47.748;8.960;2023-04-24T01:52:04;96026.34;;;13.66;64.05
3150;BME280;32503;47.748;8.960;2023-04-24T01:54:31;96024.44;;;13.56;64.17
3150;BME280;32503;47.748;8.960;2023-04-24T01:57:00;96033.75;;;13.55;64.21
3150;BME280;32503;47.748;8.960;2023-04-24T01:59:28;96033.75;;;13.55;64.03
3150;BME280;32503;47.748;8.960;2023-04-24T02:01:56;96029.09;;;13.48;63.66
3150;BME280;32503;47.748;8.960;2023-04-24T02:04:23;96029.53;;;13.43;63.74
3150;BME280;32503;47.748;8.960;2023-04-24T02:06:50;96035.34;;;13.45;63.63
3150;BME280;32503;47.748;8.960;2023-04-24T02:09:17;96034.16;;;13.46;63.97
3150;BME280;32503;47.748;8.960;2023-04-24T02:11:44;96035.34;;;13.45;64.08
3150;BME280;32503;47.748;8.960;2023-04-24T02:14:13;96034.16;;;13.46;64.07
3150;BME280;32503;47.748;8.960;2023-04-24T02:16:40;96031.06;;;13.44;64.12
3150;BME280;32503;47.748;8.960;2023-04-24T02:19:07;96031.84;;;13.37;64.35
3150;BME280;32503;47.748;8.960;2023-04-24T02:21:34;96030.34;;;13.33;64.68
3150;BME280;32503;47.748;8.960;2023-04-24T02:24:01;96029.13;;;13.30;64.62
3150;BME280;32503;47.748;8.960;2023-04-24T02:26:28;96029.53;;;13.28;64.62
3150;BME280;32503;47.748;8.960;2023-04-24T02:28:57;96029.91;;;13.27;64.93
3150;BME280;32503;47.748;8.960;2023-04-24T02:31:25;96045.81;;;13.21;64.92
3150;BME280;32503;47.748;8.960;2023-04-24T02:33:52;96035.34;;;13.23;64.79
3150;BME280;32503;47.748;8.960;2023-04-24T02:36:19;96029.53;;;13.21;64.73
3150;BME280;32503;47.748;8.960;2023-04-24T02:38:46;96033.06;;;13.18;65.09
3150;BME280;32503;47.748;8.960;2023-04-24T02:41:13;96030.75;;;13.13;65.34
3150;BME280;32503;47.748;8.960;2023-04-24T02:43:40;96029.97;;;13.09;65.52
3150;BME280;32503;47.748;8.960;2023-04-24T02:46:07;96028.81;;;12.99;65.10
3150;BME280;32503;47.748;8.960;2023-04-24T02:48:36;96024.16;;;13.03;64.48
3150;BME280;32503;47.748;8.960;2023-04-24T02:51:03;96037.72;;;13.03;65.06
3150;BME280;32503;47.748;8.960;2023-04-24T02:53:32;96026.09;;;13.06;65.00
3150;BME280;32503;47.748;8.960;2023-04-24T02:55:59;96032.28;;;13.03;65.13
3150;BME280;32503;47.748;8.960;2023-04-24T02:58:26;96026.50;;;12.98;64.95
3150;BME280;32503;47.748;8.960;2023-04-24T03:00:54;96023.00;;;13.01;64.62
3150;BME280;32503;47.748;8.960;2023-04-24T03:03:22;96007.50;;;12.98;64.55
3150;BME280;32503;47.748;8.960;2023-04-24T03:05:50;96006.75;;;12.94;64.03
3150;BME280;32503;47.748;8.960;2023-04-24T03:08:17;96021.47;;;12.93;64.26
3150;BME280;32503;47.748;8.960;2023-04-24T03:10:44;96008.28;;;12.91;64.23
3150;BME280;32503;47.748;8.960;2023-04-24T03:13:11;96020.72;;;12.88;64.13
3150;BME280;32503;47.748;8.960;2023-04-24T03:15:38;96021.47;;;12.93;64.13
3150;BME280;32503;47.748;8.960;2023-04-24T03:18:05;96016.81;;;12.89;64.04
3150;BME280;32503;47.748;8.960;2023-04-24T03:20:32;96013.72;;;12.80;64.31
3150;BME280;32503;47.748;8.960;2023-04-24T03:23:01;96004.44;;;12.81;64.50
3150;BME280;32503;47.748;8.960;2023-04-24T03:25:28;96003.66;;;12.81;64.28
3150;BME280;32503;47.748;8.960;2023-04-24T03:27:55;96006.38;;;12.81;64.41
3150;BME280;32503;47.748;8.960;2023-04-24T03:30:22;96009.88;;;12.74;64.68
3150;BME280;32503;47.748;8.960;2023-04-24T03:32:49;96021.88;;;12.73;64.58
3150;BME280;32503;47.748;8.960;2023-04-24T03:35:16;96023.03;;;12.76;64.60
3150;BME280;32503;47.748;8.960;2023-04-24T03:37:43;96028.06;;;12.66;64.48
3150;BME280;32503;47.748;8.960;2023-04-24T03:40:12;96022.28;;;12.61;64.53
3150;BME280;32503;47.748;8.960;2023-04-24T03:42:39;96023.03;;;12.58;64.57
3150;BME280;32503;47.748;8.960;2023-04-24T03:45:08;96023.81;;;12.47;64.33
3150;BME280;32503;47.748;8.960;2023-04-24T03:47:35;96023.81;;;12.58;64.35
3150;BME280;32503;47.748;8.960;2023-04-24T03:50:02;96024.59;;;12.59;63.94
3150;BME280;32503;47.748;8.960;2023-04-24T03:52:29;96028.47;;;12.58;64.35
3150;BME280;32503;47.748;8.960;2023-04-24T03:54:56;96022.66;;;12.56;63.78
3150;BME280;32503;47.748;8.960;2023-04-24T03:57:25;96026.94;;;12.46;64.48
3150;BME280;32503;47.748;8.960;2023-04-24T03:59:52;96032.72;;;12.48;64.15
3150;BME280;32503;47.748;8.960;2023-04-24T04:02:19;96030.03;;;12.51;64.10
3150;BME280;32503;47.748;8.960;2023-04-24T04:04:46;96032.72;;;12.51;64.51
3150;BME280;32503;47.748;8.960;2023-04-24T04:07:13;96026.50;;;12.40;64.77
3150;BME280;32503;47.748;8.960;2023-04-24T04:09:40;96025.75;;;12.40;64.65
3150;BME280;32503;47.748;8.960;2023-04-24T04:12:07;96019.94;;;12.41;65.01
3150;BME280;32503;47.748;8.960;2023-04-24T04:14:35;96025.34;;;12.41;64.62
3150;BME280;32503;47.748;8.960;2023-04-24T04:17:02;96023.03;;;12.36;65.07
3150;BME280;32503;47.748;8.960;2023-04-24T04:19:29;96025.34;;;12.30;64.94
3150;BME280;32503;47.748;8.960;2023-04-24T04:21:56;96036.19;;;12.38;65.19
3150;BME280;32503;47.748;8.960;2023-04-24T04:24:23;96033.09;;;12.32;65.47
3150;BME280;32503;47.748;8.960;2023-04-24T04:26:52;96030.38;;;12.21;65.47
3150;BME280;32503;47.748;8.960;2023-04-24T04:29:22;96033.09;;;12.28;64.91
3150;BME280;32503;47.748;8.960;2023-04-24T04:31:51;96042.38;;;12.31;65.31
3150;BME280;32503;47.748;8.960;2023-04-24T04:34:18;96046.28;;;12.33;64.91
3150;BME280;32503;47.748;8.960;2023-04-24T04:36:45;96045.09;;;12.27;65.14
3150;BME280;32503;47.748;8.960;2023-04-24T04:39:12;96057.50;;;12.28;65.09
3150;BME280;32503;47.748;8.960;2023-04-24T04:41:40;96065.63;;;12.28;65.13
3150;BME280;32503;47.748;8.960;2023-04-24T04:44:07;96071.81;;;12.29;65.36
3150;BME280;32503;47.748;8.960;2023-04-24T04:46:35;96071.03;;;12.32;65.57
3150;BME280;32503;47.748;8.960;2023-04-24T04:49:05;96078.81;;;12.37;64.95
3150;BME280;32503;47.748;8.960;2023-04-24T04:51:34;96090.03;;;12.39;65.16
3150;BME280;32503;47.748;8.960;2023-04-24T04:54:01;96087.31;;;12.39;65.19
3150;BME280;32503;47.748;8.960;2023-04-24T04:56:28;96088.47;;;12.38;65.61
3150;BME280;32503;47.748;8.960;2023-04-24T04:58:55;96094.28;;;12.40;66.20
3150;BME280;32503;47.748;8.960;2023-04-24T05:01:22;96092.72;;;12.36;66.09
3150;BME280;32503;47.748;8.960;2023-04-24T05:03:50;96104.31;;;12.29;66.42
3150;BME280;32503;47.748;8.960;2023-04-24T05:06:18;96098.13;;;12.28;67.28
3150;BME280;32503;47.748;8.960;2023-04-24T05:08:46;96105.06;;;12.22;67.38
3150;BME280;32503;47.748;8.960;2023-04-24T05:11:14;96105.09;;;12.26;66.84
3150;BME280;32503;47.748;8.960;2023-04-24T05:13:41;96104.28;;;12.14;67.74
3150;BME280;32503;47.748;8.960;2023-04-24T05:16:08;96105.78;;;12.05;67.59
3150;BME280;32503;47.748;8.960;2023-04-24T05:18:35;96121.28;;;12.08;67.19
3150;BME280;32503;47.748;8.960;2023-04-24T05:21:02;96105.81;;;12.08;67.58
3150;BME280;32503;47.748;8.960;2023-04-24T05:23:31;96108.13;;;12.06;67.61
3150;BME280;32503;47.748;8.960;2023-04-24T05:25:58;96117.38;;;11.98;67.50
3150;BME280;32503;47.748;8.960;2023-04-24T05:28:25;96122.41;;;11.96;67.71
3150;BME280;32503;47.748;8.960;2023-04-24T05:30:54;96123.97;;;11.97;67.77
3150;BME280;32503;47.748;8.960;2023-04-24T05:33:21;96134.44;;;12.02;67.19
3150;BME280;32503;47.748;8.960;2023-04-24T05:35:48;96122.03;;;12.05;67.73
3150;BME280;32503;47.748;8.960;2023-04-24T05:38:15;96126.34;;;12.09;67.68
3150;BME280;32503;47.748;8.960;2023-04-24T05:40:45;96135.22;;;12.06;67.86
3150;BME280;32503;47.748;8.960;2023-04-24T05:43:12;96124.75;;;12.08;66.98
3150;BME280;32503;47.748;8.960;2023-04-24T05:45:39;96117.38;;;11.98;68.04
3150;BME280;32503;47.748;8.960;2023-04-24T05:48:06;96115.88;;;12.11;67.39
3150;BME280;32503;47.748;8.960;2023-04-24T05:50:33;96119.34;;;12.12;67.60
3150;BME280;32503;47.748;8.960;2023-04-24T05:53:00;96128.69;;;12.22;66.91
3150;BME280;32503;47.748;8.960;2023-04-24T05:55:28;96122.94;;;12.34;67.33
3150;BME280;32503;47.748;8.960;2023-04-24T05:57:56;96135.38;;;12.67;66.17
3150;BME280;32503;47.748;8.960;2023-04-24T06:00:24;96137.34;;;12.96;65.68
3150;BME280;32503;47.748;8.960;2023-04-24T06:02:51;96143.16;;;13.41;64.40
3150;BME280;32503;47.748;8.960;2023-04-24T06:05:19;96149.25;;;13.88;63.03
3150;BME280;32503;47.748;8.960;2023-04-24T06:07:47;96141.38;;;14.22;61.50
3150;BME280;32503;47.748;8.960;2023-04-24T06:10:14;96150.91;;;14.52;60.03
3150;BME280;32503;47.748;8.960;2023-04-24T06:12:41;96150.41;;;14.83;59.75
3150;BME280;32503;47.748;8.960;2023-04-24T06:15:10;96153.38;;;14.99;58.55
3150;BME280;32503;47.748;8.960;2023-04-24T06:17:38;96155.22;;;15.13;57.46
3150;BME280;32503;47.748;8.960;2023-04-24T06:20:06;96146.88;;;15.34;57.65
3150;BME280;32503;47.748;8.960;2023-04-24T06:22:33;96153.28;;;15.59;57.08
3150;BME280;32503;47.748;8.960;2023-04-24T06:25:01;96161.94;;;15.88;56.24
3150;BME280;32503;47.748;8.960;2023-04-24T06:27:28;96150.47;;;16.04;54.97
3150;BME280;32503;47.748;8.960;2023-04-24T06:29:55;96156.91;;;16.21;53.83
3150;BME280;32503;47.748;8.960;2023-04-24T06:32:24;96158.25;;;16.40;53.59
3150;BME280;32503;47.748;8.960;2023-04-24T06:34:51;96154.72;;;16.70;53.12
3150;BME280;32503;47.748;8.960;2023-04-24T06:37:19;96145.41;;;16.37;52.37
3150;BME280;32503;47.748;8.960;2023-04-24T06:39:46;96154.81;;;16.32;52.77
3150;BME280;32503;47.748;8.960;2023-04-24T06:42:13;96158.97;;;16.44;52.66
3150;BME280;32503;47.748;8.960;2023-04-24T06:44:40;96158.75;;;16.58;52.78
3150;BME280;32503;47.748;8.960;2023-04-24T06:47:09;96149.06;;;16.84;51.79
3150;BME280;32503;47.748;8.960;2023-04-24T06:49:37;96148.56;;;17.17;51.03
3150;BME280;32503;47.748;8.960;2023-04-24T06:52:04;96164.50;;;17.46;50.25
3150;BME280;32503;47.748;8.960;2023-04-24T06:54:32;96173.97;;;17.61;49.18
3150;BME280;32503;47.748;8.960;2023-04-24T06:56:59;96172.78;;;17.86;48.30
3150;BME280;32503;47.748;8.960;2023-04-24T06:59:28;96168.91;;;18.27;47.97
3150;BME280;32503;47.748;8.960;2023-04-24T07:01:56;96181.84;;;18.63;47.32
3150;BME280;32503;47.748;8.960;2023-04-24T07:04:23;96187.00;;;18.77;47.16
3150;BME280;32503;47.748;8.960;2023-04-24T07:06:52;96186.47;;;19.02;45.65
3150;BME280;32503;47.748;8.960;2023-04-24T07:09:21;96171.59;;;19.36;44.65
3150;BME280;32503;47.748;8.960;2023-04-24T07:11:49;96188.13;;;19.32;44.23
3150;BME280;32503;47.748;8.960;2023-04-24T07:14:17;96190.16;;;19.28;43.26
3150;BME280;32503;47.748;8.960;2023-04-24T07:16:44;96189.16;;;19.22;43.72
3150;BME280;32503;47.748;8.960;2023-04-24T07:19:12;96185.91;;;19.27;43.79
3150;BME280;32503;47.748;8.960;2023-04-24T07:21:39;96189.25;;;19.19;42.97
3150;BME280;32503;47.748;8.960;2023-04-24T07:24:07;96193.78;;;19.42;42.55
3150;BME280;32503;47.748;8.960;2023-04-24T07:26:37;96197.09;;;19.49;42.37
3150;BME280;32503;47.748;8.960;2023-04-24T07:29:05;96190.31;;;19.70;41.05
3150;BME280;32503;47.748;8.960;2023-04-24T07:31:32;96197.72;;;19.57;39.97
3150;BME280;32503;47.748;8.960;2023-04-24T07:33:59;96193.94;;;19.51;40.96
3150;BME280;32503;47.748;8.960;2023-04-24T07:36:26;96197.09;;;19.82;40.60
3150;BME280;32503;47.748;8.960;2023-04-24T07:38:54;96209.44;;;20.20;41.10
3150;BME280;32503;47.748;8.960;2023-04-24T07:41:24;96198.06;;;20.34;39.82
3150;BME280;32503;47.748;8.960;2023-04-24T07:43:51;96203.88;;;20.36;40.21
3150;BME280;32503;47.748;8.960;2023-04-24T07:46:19;96201.00;;;20.27;40.05
3150;BME280;32503;47.748;8.960;2023-04-24T07:48:46;96219.47;;;19.81;39.21
3150;BME280;32503;47.748;8.960;2023-04-24T07:51:14;96210.00;;;19.00;40.00
3150;BME280;32503;47.748;8.960;2023-04-24T07:53:41;96221.50;;;18.34;41.72
3150;BME280;32503;47.748;8.960;2023-04-24T07:56:08;96233.03;;;17.55;42.55
3150;BME280;32503;47.748;8.960;2023-04-24T07:58:37;96240.25;;;17.18;44.19
3150;BME280;32503;47.748;8.960;2023-04-24T08:01:04;96251.94;;;16.91;45.74
3150;BME280;32503;47.748;8.960;2023-04-24T08:03:31;96238.38;;;16.49;46.57
3150;BME280;32503;47.748;8.960;2023-04-24T08:05:58;96255.84;;;16.21;45.95
3150;BME280;32503;47.748;8.960;2023-04-24T08:08:25;96253.63;;;16.09;46.80
3150;BME280;32503;47.748;8.960;2023-04-24T08:10:52;96259.22;;;15.95;47.93
3150;BME280;32503;47.748;8.960;2023-04-24T08:13:19;96257.06;;;15.75;48.55
3150;BME280;32503;47.748;8.960;2023-04-24T08:15:47;96266.31;;;15.88;48.42
3150;BME280;32503;47.748;8.960;2023-04-24T08:18:14;96265.38;;;16.02;48.65
3150;BME280;32503;47.748;8.960;2023-04-24T08:20:41;96272.88;;;16.33;47.78
3150;BME280;32503;47.748;8.960;2023-04-24T08:23:08;96269.16;;;16.54;46.89
3150;BME280;32503;47.748;8.960;2023-04-24T08:25:36;96272.56;;;16.61;45.47
3150;BME280;32503;47.748;8.960;2023-04-24T08:28:05;96276.31;;;16.75;44.95
3150;BME280;32503;47.748;8.960;2023-04-24T08:30:32;96279.44;;;16.73;44.69
3150;BME280;32503;47.748;8.960;2023-04-24T08:33:00;96277.13;;;16.72;45.07
3150;BME280;32503;47.748;8.960;2023-04-24T08:35:28;96270.13;;;16.67;44.93
3150;BME280;32503;47.748;8.960;2023-04-24T08:37:55;96277.19;;;16.64;44.75
3150;BME280;32503;47.748;8.960;2023-04-24T08:40:27;96277.66;;;16.59;43.69
3150;BME280;32503;47.748;8.960;2023-04-24T08:42:55;96273.63;;;16.67;43.90
3150;BME280;32503;47.748;8.960;2023-04-24T08:45:26;96263.69;;;16.54;44.04
3150;BME280;32503;47.748;8.960;2023-04-24T08:47:54;96268.13;;;16.75;44.04
3150;BME280;32503;47.748;8.960;2023-04-24T08:50:22;96268.94;;;17.02;43.15
3150;BME280;32503;47.748;8.960;2023-04-24T08:52:50;96269.84;;;17.23;43.11
3150;BME280;32503;47.748;8.960;2023-04-24T08:55:19;96284.03;;;17.38;41.97
3150;BME280;32503;47.748;8.960;2023-04-24T08:57:51;96289.19;;;17.59;41.71
3150;BME280;32503;47.748;8.960;2023-04-24T09:00:20;96286.44;;;17.87;41.69
3150;BME280;32503;47.748;8.960;2023-04-24T09:02:49;96294.13;;;17.95;40.43
3150;BME280;32503;47.748;8.960;2023-04-24T09:05:17;96295.84;;;18.09;40.75
3150;BME280;32503;47.748;8.960;2023-04-24T09:07:53;96298.34;;;18.00;39.74
3150;BME280;32503;47.748;8.960;2023-04-24T09:10:23;96296.50;;;17.66;40.55
3150;BME280;32503;47.748;8.960;2023-04-24T09:12:51;96294.50;;;17.70;40.71
3150;BME280;32503;47.748;8.960;2023-04-24T09:15:19;96275.13;;;17.85;40.21
3150;BME280;32503;47.748;8.960;2023-04-24T09:17:47;96302.09;;;18.30;40.74
3150;BME280;32503;47.748;8.960;2023-04-24T09:20:14;96300.50;;;18.52;39.74
3150;BME280;32503;47.748;8.960;2023-04-24T09:22:42;96313.72;;;18.57;39.40
3150;BME280;32503;47.748;8.960;2023-04-24T09:25:11;96300.66;;;18.65;39.23
3150;BME280;32503;47.748;8.960;2023-04-24T09:27:42;96302.34;;;18.79;38.41
3150;BME280;32503;47.748;8.960;2023-04-24T09:30:11;96297.59;;;18.83;38.21
3150;BME280;32503;47.748;8.960;2023-04-24T09:32:38;96302.63;;;19.05;38.18
3150;BME280;32503;47.748;8.960;2023-04-24T09:35:09;96311.59;;;19.25;38.43
3150;BME280;32503;47.748;8.960;2023-04-24T09:37:38;96308.25;;;19.34;37.25
3150;BME280;32503;47.748;8.960;2023-04-24T09:40:16;96317.34;;;19.31;36.07
3150;BME280;32503;47.748;8.960;2023-04-24T09:42:45;96311.97;;;19.44;36.11
3150;BME280;32503;47.748;8.960;2023-04-24T09:45:13;96304.88;;;19.63;34.75
3150;BME280;32503;47.748;8.960;2023-04-24T09:47:41;96306.84;;;19.62;34.69
3150;BME280;32503;47.748;8.960;2023-04-24T09:50:14;96311.72;;;19.55;34.74
3150;BME280;32503;47.748;8.960;2023-04-24T09:52:43;96307.59;;;19.46;34.98
3150;BME280;32503;47.748;8.960;2023-04-24T09:55:18;96314.72;;;19.44;35.69
3150;BME280;32503;47.748;8.960;2023-04-24T09:57:50;96322.41;;;19.32;34.18
3150;BME280;32503;47.748;8.960;2023-04-24T10:00:26;96318.41;;;18.77;33.99
3150;BME280;32503;47.748;8.960;2023-04-24T10:03:00;96322.44;;;18.72;33.94
3150;BME280;32503;47.748;8.960;2023-04-24T10:05:30;96337.16;;;18.79;34.46
3150;BME280;32503;47.748;8.960;2023-04-24T10:08:02;96329.38;;;18.57;33.31
3150;BME280;32503;47.748;8.960;2023-04-24T10:10:34;96329.72;;;18.59;32.52
3150;BME280;32503;47.748;8.960;2023-04-24T10:13:04;96340.16;;;18.44;32.92
3150;BME280;32503;47.748;8.960;2023-04-24T10:15:32;96322.22;;;18.19;33.45
3150;BME280;32503;47.748;8.960;2023-04-24T10:17:59;96333.41;;;18.05;33.34
3150;BME280;32503;47.748;8.960;2023-04-24T10:20:28;96334.03;;;17.89;34.23
3150;BME280;32503;47.748;8.960;2023-04-24T10:22:58;96327.75;;;17.65;33.65
3150;BME280;32503;47.748;8.960;2023-04-24T10:25:27;96319.16;;;17.67;33.35
3150;BME280;32503;47.748;8.960;2023-04-24T10:27:56;96331.75;;;17.88;34.07
3150;BME280;32503;47.748;8.960;2023-04-24T10:30:27;96337.81;;;17.99;34.74
3150;BME280;32503;47.748;8.960;2023-04-24T10:32:54;96326.47;;;18.00;34.32
3150;BME280;32503;47.748;8.960;2023-04-24T10:35:22;96331.56;;;18.22;34.58
3150;BME280;32503;47.748;8.960;2023-04-24T10:37:57;96325.00;;;18.40;34.24
3150;BME280;32503;47.748;8.960;2023-04-24T10:40:30;96346.63;;;18.54;34.54
3150;BME280;32503;47.748;8.960;2023-04-24T10:43:02;96349.78;;;18.52;33.63
3150;BME280;32503;47.748;8.960;2023-04-24T10:45:32;96331.22;;;18.64;33.45
3150;BME280;32503;47.748;8.960;2023-04-24T10:48:01;96344.22;;;19.00;34.07
3150;BME280;32503;47.748;8.960;2023-04-24T10:50:30;96348.06;;;19.22;33.78
3150;BME280;32503;47.748;8.960;2023-04-24T10:53:14;96341.34;;;19.43;33.26
3150;BME280;32503;47.748;8.960;2023-04-24T10:55:50;96340.56;;;19.43;32.49
3150;BME280;32503;47.748;8.960;2023-04-24T10:58:22;96345.84;;;19.33;32.30
3150;BME280;32503;47.748;8.960;2023-04-24T11:00:56;96355.59;;;18.98;32.63
3150;BME280;32503;47.748;8.960;2023-04-24T11:03:26;96356.31;;;18.59;32.61
3150;BME280;32503;47.748;8.960;2023-04-24T11:06:00;96367.28;;;18.59;33.20
3150;BME280;32503;47.748;8.960;2023-04-24T11:08:30;96344.47;;;18.22;32.86
3150;BME280;32503;47.748;8.960;2023-04-24T11:11:01;96355.00;;;18.23;32.88
3150;BME280;32503;47.748;8.960;2023-04-24T11:14:06;96352.06;;;18.34;33.00
3150;BME280;32503;47.748;8.960;2023-04-24T11:16:36;96347.88;;;18.49;33.13
3150;BME280;32503;47.748;8.960;2023-04-24T11:19:07;96346.06;;;18.63;32.71
3150;BME280;32503;47.748;8.960;2023-04-24T11:21:46;96351.81;;;18.48;33.29
3150;BME280;32503;47.748;8.960;2023-04-24T11:24:28;96354.56;;;18.48;32.18
3150;BME280;32503;47.748;8.960;2023-04-24T11:26:59;96348.59;;;18.53;31.93
3150;BME280;32503;47.748;8.960;2023-04-24T11:30:00;96368.03;;;18.59;32.44
3150;BME280;32503;47.748;8.960;2023-04-24T11:32:30;96379.19;;;18.48;32.46
3150;BME280;32503;47.748;8.960;2023-04-24T11:34:59;96365.28;;;18.39;32.89
3150;BME280;32503;47.748;8.960;2023-04-24T11:37:29;96355.72;;;18.04;33.40
3150;BME280;32503;47.748;8.960;2023-04-24T11:39:59;96368.19;;;18.05;33.52
3150;BME280;32503;47.748;8.960;2023-04-24T11:42:27;96354.63;;;18.21;33.43
3150;BME280;32503;47.748;8.960;2023-04-24T11:44:55;96365.09;;;18.26;33.63
3150;BME280;32503;47.748;8.960;2023-04-24T11:47:29;96363.72;;;18.38;32.96
3150;BME280;32503;47.748;8.960;2023-04-24T11:49:58;96356.00;;;18.33;33.38
3150;BME280;32503;47.748;8.960;2023-04-24T11:52:25;96367.88;;;18.46;33.39
3150;BME280;32503;47.748;8.960;2023-04-24T11:54:52;96364.28;;;18.49;32.99
3150;BME280;32503;47.748;8.960;2023-04-24T11:57:20;96368.94;;;18.52;32.89
3150;BME280;32503;47.748;8.960;2023-04-24T11:59:48;96371.31;;;18.50;33.15
3150;BME280;32503;47.748;8.960;2023-04-24T12:02:22;96370.50;;;18.30;32.07
3150;BME280;32503;47.748;8.960;2023-04-24T12:04:52;96369.19;;;18.38;32.59
3150;BME280;32503;47.748;8.960;2023-04-24T12:07:19;96373.09;;;18.37;33.24
3150;BME280;32503;47.748;8.960;2023-04-24T12:09:49;96374.09;;;18.27;33.07
3150;BME280;32503;47.748;8.960;2023-04-24T12:12:18;96370.69;;;17.95;33.73
3150;BME280;32503;47.748;8.960;2023-04-24T12:14:48;96371.84;;;17.94;34.71
3150;BME280;32503;47.748;8.960;2023-04-24T12:17:16;96378.53;;;17.93;34.28
3150;BME280;32503;47.748;8.960;2023-04-24T12:19:48;96386.03;;;17.86;33.69
3150;BME280;32503;47.748;8.960;2023-04-24T12:22:17;96391.06;;;17.91;34.04
3150;BME280;32503;47.748;8.960;2023-04-24T12:25:02;96396.47;;;17.94;34.21
3150;BME280;32503;47.748;8.960;2023-04-24T12:27:31;96390.94;;;17.98;33.64
3150;BME280;32503;47.748;8.960;2023-04-24T12:30:01;96396.41;;;17.98;34.21
3150;BME280;32503;47.748;8.960;2023-04-24T12:32:28;96393.09;;;18.10;34.26
3150;BME280;32503;47.748;8.960;2023-04-24T12:34:56;96391.56;;;18.09;34.98
3150;BME280;32503;47.748;8.960;2023-04-24T12:37:26;96383.19;;;17.93;34.37
3150;BME280;32503;47.748;8.960;2023-04-24T12:40:05;96386.31;;;17.95;34.79
3150;BME280;32503;47.748;8.960;2023-04-24T12:42:35;96383.16;;;17.96;34.75
3150;BME280;32503;47.748;8.960;2023-04-24T12:45:04;96382.16;;;18.10;35.33
3150;BME280;32503;47.748;8.960;2023-04-24T12:47:33;96387.38;;;18.25;35.06
3150;BME280;32503;47.748;8.960;2023-04-24T12:50:01;96380.63;;;18.56;34.59
3150;BME280;32503;47.748;8.960;2023-04-24T12:52:30;96374.00;;;18.74;33.85
3150;BME280;32503;47.748;8.960;2023-04-24T12:54:59;96366.53;;;18.78;33.71
3150;BME280;32503;47.748;8.960;2023-04-24T12:57:29;96368.53;;;18.74;33.79
3150;BME280;32503;47.748;8.960;2023-04-24T12:59:58;96368.19;;;18.72;33.79
3150;BME280;32503;47.748;8.960;2023-04-24T13:02:27;96375.50;;;18.79;34.18
3150;BME280;32503;47.748;8.960;2023-04-24T13:04:54;96358.44;;;18.71;33.92
3150;BME280;32503;47.748;8.960;2023-04-24T13:07:21;96374.88;;;18.71;33.58
3150;BME280;32503;47.748;8.960;2023-04-24T13:09:51;96368.06;;;18.79;33.77
3150;BME280;32503;47.748;8.960;2023-04-24T13:12:18;96381.72;;;19.03;33.84
3150;BME280;32503;47.748;8.960;2023-04-24T13:14:46;96367.09;;;18.89;33.62
3150;BME280;32503;47.748;8.960;2023-04-24T13:17:14;96371.53;;;18.83;33.38